sensor_id;sensor_type;location;lat;lon;timestamp;pressure;altitude;pressure_sealevel;temperature;humidity
48874;BME280;35220;46.204;5.220;2022-10-30T00:01:29;99045.88;;;19.41;51.46
48874;BME280;35220;46.204;5.220;2022-10-30T00:06:29;99036.50;;;19.35;51.46
48874;BME280;35220;46.204;5.220;2022-10-30T00:11:30;99044.72;;;19.33;51.39
48874;BME280;35220;46.204;5.220;2022-10-30T00:16:30;99033.66;;;19.31;51.66
48874;BME280;35220;46.204;5.220;2022-10-30T00:21:30;99031.78;;;19.32;51.98
48874;BME280;35220;46.204;5.220;2022-10-30T00:26:31;99024.63;;;19.32;51.69
48874;BME280;35220;46.204;5.220;2022-10-30T00:31:32;99021.69;;;19.34;51.47
48874;BME280;35220;46.204;5.220;2022-10-30T00:36:32;99023.38;;;19.30;51.72
48874;BME280;35220;46.204;5.220;2022-10-30T00:41:33;99026.59;;;19.27;51.75
48874;BME280;35220;46.204;5.220;2022-10-30T00:46:36;99028.00;;;19.24;51.68
48874;BME280;35220;46.204;5.220;2022-10-30T00:51:41;99016.44;;;19.20;51.82
48874;BME280;35220;46.204;5.220;2022-10-30T00:56:42;99022.63;;;19.15;51.49
48874;BME280;35220;46.204;5.220;2022-10-30T01:01:44;99017.13;;;19.12;51.73
48874;BME280;35220;46.204;5.220;2022-10-30T01:06:47;99019.09;;;19.06;51.81
48874;BME280;35220;46.204;5.220;2022-10-30T01:11:51;99019.97;;;19.02;52.02
48874;BME280;35220;46.204;5.220;2022-10-30T01:22:44;99018.19;;;18.97;52.20
48874;BME280;35220;46.204;5.220;2022-10-30T01:43:53;99002.66;;;18.82;52.11
48874;BME280;35220;46.204;5.220;2022-10-30T01:49:36;99007.94;;;18.82;52.00
48874;BME280;35220;46.204;5.220;2022-10-30T02:00:04;99001.56;;;18.83;51.45
48874;BME280;35220;46.204;5.220;2022-10-30T02:05:06;98993.44;;;18.79;51.89
48874;BME280;35220;46.204;5.220;2022-10-30T02:10:09;98986.00;;;18.81;51.80
48874;BME280;35220;46.204;5.220;2022-10-30T02:15:10;98995.53;;;18.82;51.44
48874;BME280;35220;46.204;5.220;2022-10-30T02:20:30;98983.59;;;18.85;51.46
48874;BME280;35220;46.204;5.220;2022-10-30T02:25:31;98992.03;;;18.87;51.45
48874;BME280;35220;46.204;5.220;2022-10-30T02:30:31;98985.44;;;18.84;51.45
48874;BME280;35220;46.204;5.220;2022-10-30T02:35:32;98986.13;;;18.90;51.24
48874;BME280;35220;46.204;5.220;2022-10-30T02:40:34;98980.84;;;18.90;51.14
48874;BME280;35220;46.204;5.220;2022-10-30T02:45:34;98978.50;;;18.88;51.30
48874;BME280;35220;46.204;5.220;2022-10-30T02:50:35;98984.38;;;18.85;51.24
48874;BME280;35220;46.204;5.220;2022-10-30T02:55:35;98983.66;;;18.79;51.28
48874;BME280;35220;46.204;5.220;2022-10-30T03:00:35;98976.63;;;18.75;51.43
48874;BME280;35220;46.204;5.220;2022-10-30T03:05:36;98987.97;;;18.75;51.30
48874;BME280;35220;46.204;5.220;2022-10-30T03:10:36;98985.22;;;18.67;51.37
48874;BME280;35220;46.204;5.220;2022-10-30T03:15:37;98973.97;;;18.61;51.70
48874;BME280;35220;46.204;5.220;2022-10-30T03:20:37;98974.56;;;18.58;51.77
48874;BME280;35220;46.204;5.220;2022-10-30T03:25:37;98977.19;;;18.58;51.46
48874;BME280;35220;46.204;5.220;2022-10-30T03:30:38;98979.63;;;18.54;51.52
48874;BME280;35220;46.204;5.220;2022-10-30T03:35:38;98972.00;;;18.53;51.27
48874;BME280;35220;46.204;5.220;2022-10-30T03:40:39;98974.63;;;18.53;51.33
48874;BME280;35220;46.204;5.220;2022-10-30T03:45:50;98972.81;;;18.53;51.03
48874;BME280;35220;46.204;5.220;2022-10-30T03:50:56;98968.38;;;18.49;50.82
48874;BME280;35220;46.204;5.220;2022-10-30T03:56:01;98982.06;;;18.51;50.58
48874;BME280;35220;46.204;5.220;2022-10-30T04:01:04;98980.03;;;18.48;50.49
48874;BME280;35220;46.204;5.220;2022-10-30T04:06:04;98984.72;;;18.51;50.12
48874;BME280;35220;46.204;5.220;2022-10-30T04:11:08;98984.41;;;18.52;50.05
48874;BME280;35220;46.204;5.220;2022-10-30T04:16:09;98981.09;;;18.47;49.77
48874;BME280;35220;46.204;5.220;2022-10-30T04:21:09;98982.88;;;18.51;49.73
48874;BME280;35220;46.204;5.220;2022-10-30T04:26:09;98970.25;;;18.48;49.32
48874;BME280;35220;46.204;5.220;2022-10-30T04:31:10;98981.50;;;18.54;48.68
48874;BME280;35220;46.204;5.220;2022-10-30T04:36:10;98977.59;;;18.51;48.57
48874;BME280;35220;46.204;5.220;2022-10-30T04:41:10;98966.31;;;18.46;48.66
48874;BME280;35220;46.204;5.220;2022-10-30T04:46:11;98968.47;;;18.43;48.56
48874;BME280;35220;46.204;5.220;2022-10-30T04:51:13;98963.19;;;18.43;48.48
48874;BME280;35220;46.204;5.220;2022-10-30T04:56:13;98962.44;;;18.43;48.27
48874;BME280;35220;46.204;5.220;2022-10-30T05:01:13;98962.22;;;18.39;47.96
48874;BME280;35220;46.204;5.220;2022-10-30T05:06:28;98946.97;;;18.36;47.99
48874;BME280;35220;46.204;5.220;2022-10-30T05:11:31;98943.28;;;18.37;47.96
48874;BME280;35220;46.204;5.220;2022-10-30T05:16:32;98936.41;;;18.36;47.75
48874;BME280;35220;46.204;5.220;2022-10-30T05:21:32;98946.19;;;18.36;47.33
48874;BME280;35220;46.204;5.220;2022-10-30T05:26:33;98938.56;;;18.34;47.34
48874;BME280;35220;46.204;5.220;2022-10-30T05:31:33;98931.72;;;18.33;47.03
48874;BME280;35220;46.204;5.220;2022-10-30T05:36:34;98922.25;;;18.32;46.95
48874;BME280;35220;46.204;5.220;2022-10-30T05:41:34;98925.09;;;18.36;46.86
48874;BME280;35220;46.204;5.220;2022-10-30T05:46:35;98926.44;;;18.33;46.87
48874;BME280;35220;46.204;5.220;2022-10-30T05:51:35;98914.34;;;18.32;46.73
48874;BME280;35220;46.204;5.220;2022-10-30T05:56:35;98917.28;;;18.31;46.82
48874;BME280;35220;46.204;5.220;2022-10-30T06:01:36;98912.78;;;18.31;46.78
48874;BME280;35220;46.204;5.220;2022-10-30T06:06:36;98918.03;;;18.31;46.92
48874;BME280;35220;46.204;5.220;2022-10-30T06:11:36;98918.03;;;18.31;47.27
48874;BME280;35220;46.204;5.220;2022-10-30T06:16:37;98917.06;;;18.27;47.42
48874;BME280;35220;46.204;5.220;2022-10-30T06:21:37;98926.25;;;18.30;47.45
48874;BME280;35220;46.204;5.220;2022-10-30T06:26:38;98929.09;;;18.33;47.53
48874;BME280;35220;46.204;5.220;2022-10-30T06:31:39;98932.72;;;18.37;47.48
48874;BME280;35220;46.204;5.220;2022-10-30T06:36:39;98925.59;;;18.38;47.82
48874;BME280;35220;46.204;5.220;2022-10-30T06:41:39;98943.19;;;18.42;47.67
48874;BME280;35220;46.204;5.220;2022-10-30T06:46:40;98947.97;;;18.40;48.17
48874;BME280;35220;46.204;5.220;2022-10-30T06:51:40;98948.19;;;18.44;48.24
48874;BME280;35220;46.204;5.220;2022-10-30T06:56:41;98953.44;;;18.44;48.23
48874;BME280;35220;46.204;5.220;2022-10-30T07:01:41;98960.84;;;18.42;48.47
48874;BME280;35220;46.204;5.220;2022-10-30T07:06:42;98965.84;;;18.43;48.30
48874;BME280;35220;46.204;5.220;2022-10-30T07:11:42;98970.06;;;18.45;48.53
48874;BME280;35220;46.204;5.220;2022-10-30T07:16:45;98968.69;;;18.47;48.34
48874;BME280;35220;46.204;5.220;2022-10-30T07:21:45;98977.88;;;18.50;48.27
48874;BME280;35220;46.204;5.220;2022-10-30T07:26:45;98968.19;;;18.45;48.74
48874;BME280;35220;46.204;5.220;2022-10-30T07:31:46;98985.72;;;18.55;48.36
48874;BME280;35220;46.204;5.220;2022-10-30T07:36:46;98985.09;;;18.58;48.29
48874;BME280;35220;46.204;5.220;2022-10-30T07:41:48;98985.22;;;18.67;48.29
48874;BME280;35220;46.204;5.220;2022-10-30T07:46:49;98994.00;;;18.76;48.11
48874;BME280;35220;46.204;5.220;2022-10-30T07:51:49;98994.66;;;18.87;47.89
48874;BME280;35220;46.204;5.220;2022-10-30T07:56:50;99002.66;;;18.95;47.69
48874;BME280;35220;46.204;5.220;2022-10-30T08:01:50;98998.47;;;19.08;47.28
48874;BME280;35220;46.204;5.220;2022-10-30T08:06:52;98997.56;;;19.13;47.40
48874;BME280;35220;46.204;5.220;2022-10-30T08:11:52;99006.06;;;19.24;47.03
48874;BME280;35220;46.204;5.220;2022-10-30T08:16:53;99012.09;;;19.38;46.70
48874;BME280;35220;46.204;5.220;2022-10-30T08:21:53;99001.31;;;19.48;46.35
48874;BME280;35220;46.204;5.220;2022-10-30T08:26:55;99014.97;;;19.64;46.33
48874;BME280;35220;46.204;5.220;2022-10-30T08:31:55;99015.56;;;19.75;45.73
48874;BME280;35220;46.204;5.220;2022-10-30T08:36:55;99014.09;;;19.83;45.57
48874;BME280;35220;46.204;5.220;2022-10-30T08:41:57;99006.19;;;19.91;45.37
48874;BME280;35220;46.204;5.220;2022-10-30T08:46:58;99010.38;;;20.06;45.37
48874;BME280;35220;46.204;5.220;2022-10-30T08:51:58;99009.19;;;20.21;45.17
48874;BME280;35220;46.204;5.220;2022-10-30T08:56:59;99006.44;;;20.26;44.37
48874;BME280;35220;46.204;5.220;2022-10-30T09:01:59;99002.94;;;20.40;44.12
48874;BME280;35220;46.204;5.220;2022-10-30T09:07:00;99008.13;;;20.54;43.82
48874;BME280;35220;46.204;5.220;2022-10-30T09:12:01;99007.91;;;20.64;43.50
48874;BME280;35220;46.204;5.220;2022-10-30T09:17:01;99005.59;;;20.71;42.90
48874;BME280;35220;46.204;5.220;2022-10-30T09:22:01;99009.09;;;20.89;43.06
48874;BME280;35220;46.204;5.220;2022-10-30T09:27:02;99011.91;;;21.01;42.80
48874;BME280;35220;46.204;5.220;2022-10-30T09:32:03;99019.44;;;21.08;41.97
48874;BME280;35220;46.204;5.220;2022-10-30T09:37:07;99026.03;;;21.37;42.52
48874;BME280;35220;46.204;5.220;2022-10-30T09:42:27;99027.03;;;21.50;41.02
48874;BME280;35220;46.204;5.220;2022-10-30T09:53:14;99030.34;;;21.73;39.24
48874;BME280;35220;46.204;5.220;2022-10-30T10:03:40;99032.94;;;21.99;39.19
48874;BME280;35220;46.204;5.220;2022-10-30T10:08:52;99021.09;;;22.05;38.79
48874;BME280;35220;46.204;5.220;2022-10-30T10:14:06;99031.41;;;22.15;38.36
48874;BME280;35220;46.204;5.220;2022-10-30T10:24:20;99041.38;;;22.27;38.04
48874;BME280;35220;46.204;5.220;2022-10-30T10:51:14;99034.38;;;22.70;37.07
48874;BME280;35220;46.204;5.220;2022-10-30T10:56:16;99029.06;;;22.70;37.77
48874;BME280;35220;46.204;5.220;2022-10-30T11:01:22;99030.13;;;22.77;37.81
48874;BME280;35220;46.204;5.220;2022-10-30T11:06:31;99031.97;;;22.86;38.05
48874;BME280;35220;46.204;5.220;2022-10-30T11:11:34;99007.94;;;22.82;38.09
48874;BME280;35220;46.204;5.220;2022-10-30T11:22:32;99011.78;;;22.93;37.71
48874;BME280;35220;46.204;5.220;2022-10-30T11:27:32;99004.72;;;23.06;38.19
48874;BME280;35220;46.204;5.220;2022-10-30T11:32:33;99016.72;;;23.04;38.51
48874;BME280;35220;46.204;5.220;2022-10-30T11:37:36;99006.09;;;23.04;38.22
48874;BME280;35220;46.204;5.220;2022-10-30T11:42:42;99013.69;;;23.23;37.96
48874;BME280;35220;46.204;5.220;2022-10-30T11:47:45;99007.47;;;23.40;38.12
48874;BME280;35220;46.204;5.220;2022-10-30T11:52:48;99000.41;;;23.44;38.21
48874;BME280;35220;46.204;5.220;2022-10-30T11:57:51;98989.28;;;23.50;37.93
48874;BME280;35220;46.204;5.220;2022-10-30T12:02:56;98983.13;;;23.71;37.92
48874;BME280;35220;46.204;5.220;2022-10-30T12:13:12;98978.75;;;24.08;37.04
48874;BME280;35220;46.204;5.220;2022-10-30T12:18:27;98972.03;;;24.36;36.75
48874;BME280;35220;46.204;5.220;2022-10-30T12:23:28;98958.06;;;27.28;32.55
48874;BME280;35220;46.204;5.220;2022-10-30T12:28:30;98943.44;;;33.81;24.46
48874;BME280;35220;46.204;5.220;2022-10-30T12:33:39;98954.47;;;35.84;21.21
48874;BME280;35220;46.204;5.220;2022-10-30T12:49:51;98928.19;;;37.81;19.84
48874;BME280;35220;46.204;5.220;2022-10-30T12:55:00;98905.19;;;36.96;19.78
48874;BME280;35220;46.204;5.220;2022-10-30T13:00:20;98914.88;;;35.63;20.64
48874;BME280;35220;46.204;5.220;2022-10-30T13:10:33;98917.97;;;35.88;21.05
48874;BME280;35220;46.204;5.220;2022-10-30T13:15:42;98924.25;;;35.54;21.20
48874;BME280;35220;46.204;5.220;2022-10-30T13:36:58;98914.56;;;31.27;26.91
48874;BME280;35220;46.204;5.220;2022-10-30T13:47:22;98893.84;;;33.53;24.54
48874;BME280;35220;46.204;5.220;2022-10-30T13:52:26;98888.63;;;33.21;24.46
48874;BME280;35220;46.204;5.220;2022-10-30T14:13:04;98895.75;;;32.71;24.23
48874;BME280;35220;46.204;5.220;2022-10-30T14:28:18;98879.72;;;33.24;22.66
48874;BME280;35220;46.204;5.220;2022-10-30T14:33:49;98879.41;;;33.14;23.06
48874;BME280;35220;46.204;5.220;2022-10-30T14:39:00;98896.34;;;33.19;22.98
48874;BME280;35220;46.204;5.220;2022-10-30T14:44:12;98887.34;;;31.90;24.34
48874;BME280;35220;46.204;5.220;2022-10-30T14:49:56;98891.16;;;31.60;24.53
48874;BME280;35220;46.204;5.220;2022-10-30T15:05:43;98890.16;;;30.25;26.77
48874;BME280;35220;46.204;5.220;2022-10-30T15:11:16;98890.53;;;29.75;27.74
48874;BME280;35220;46.204;5.220;2022-10-30T15:16:20;98898.88;;;29.29;28.75
48874;BME280;35220;46.204;5.220;2022-10-30T15:21:22;98909.28;;;28.47;30.12
48874;BME280;35220;46.204;5.220;2022-10-30T15:26:33;98895.16;;;28.23;31.75
48874;BME280;35220;46.204;5.220;2022-10-30T15:31:34;98897.34;;;27.72;32.32
48874;BME280;35220;46.204;5.220;2022-10-30T15:36:40;98914.81;;;27.26;33.55
48874;BME280;35220;46.204;5.220;2022-10-30T15:41:48;98905.25;;;26.86;35.26
48874;BME280;35220;46.204;5.220;2022-10-30T15:46:51;98900.97;;;26.50;34.83
48874;BME280;35220;46.204;5.220;2022-10-30T15:51:52;98904.53;;;25.90;35.90
48874;BME280;35220;46.204;5.220;2022-10-30T15:56:58;98897.00;;;25.36;36.92
48874;BME280;35220;46.204;5.220;2022-10-30T16:01:58;98907.44;;;24.88;36.70
48874;BME280;35220;46.204;5.220;2022-10-30T16:07:00;98913.34;;;24.32;39.21
48874;BME280;35220;46.204;5.220;2022-10-30T16:12:05;98914.03;;;23.83;40.75
48874;BME280;35220;46.204;5.220;2022-10-30T16:17:08;98926.34;;;23.54;41.92
48874;BME280;35220;46.204;5.220;2022-10-30T16:22:13;98921.16;;;23.16;43.38
48874;BME280;35220;46.204;5.220;2022-10-30T16:27:18;98925.22;;;22.92;42.97
48874;BME280;35220;46.204;5.220;2022-10-30T16:32:20;98927.41;;;22.61;44.53
48874;BME280;35220;46.204;5.220;2022-10-30T16:37:25;98925.97;;;22.42;43.73
48874;BME280;35220;46.204;5.220;2022-10-30T16:42:27;98934.56;;;22.21;44.52
48874;BME280;35220;46.204;5.220;2022-10-30T16:47:27;98934.94;;;22.02;44.90
48874;BME280;35220;46.204;5.220;2022-10-30T16:52:34;98938.09;;;21.87;45.86
48874;BME280;35220;46.204;5.220;2022-10-30T16:57:37;98942.97;;;21.76;45.44
48874;BME280;35220;46.204;5.220;2022-10-30T17:02:43;98944.81;;;21.58;46.34
48874;BME280;35220;46.204;5.220;2022-10-30T17:07:57;98942.22;;;21.50;47.20
48874;BME280;35220;46.204;5.220;2022-10-30T17:18:28;98951.66;;;21.24;46.66
48874;BME280;35220;46.204;5.220;2022-10-30T17:23:33;98956.78;;;21.12;47.29
48874;BME280;35220;46.204;5.220;2022-10-30T17:28:35;98961.28;;;21.03;47.65
48874;BME280;35220;46.204;5.220;2022-10-30T17:33:36;98961.25;;;20.94;47.71
48874;BME280;35220;46.204;5.220;2022-10-30T17:38:37;98968.13;;;20.95;47.08
48874;BME280;35220;46.204;5.220;2022-10-30T17:43:56;98970.47;;;20.88;47.91
48874;BME280;35220;46.204;5.220;2022-10-30T17:48:57;98982.91;;;20.79;47.34
48874;BME280;35220;46.204;5.220;2022-10-30T17:54:00;98980.09;;;20.75;47.29
48874;BME280;35220;46.204;5.220;2022-10-30T17:59:01;98995.31;;;20.69;47.18
48874;BME280;35220;46.204;5.220;2022-10-30T18:04:04;98988.28;;;20.65;47.79
48874;BME280;35220;46.204;5.220;2022-10-30T18:09:05;99000.84;;;20.59;47.87
48874;BME280;35220;46.204;5.220;2022-10-30T18:14:05;99012.66;;;20.53;47.90
48874;BME280;35220;46.204;5.220;2022-10-30T18:19:09;99024.81;;;20.54;48.11
48874;BME280;35220;46.204;5.220;2022-10-30T18:24:13;99014.34;;;20.49;48.06
48874;BME280;35220;46.204;5.220;2022-10-30T18:29:14;99011.06;;;20.43;47.94
48874;BME280;35220;46.204;5.220;2022-10-30T18:34:17;99023.31;;;20.39;47.85
48874;BME280;35220;46.204;5.220;2022-10-30T18:39:20;99019.41;;;20.37;47.68
48874;BME280;35220;46.204;5.220;2022-10-30T18:44:20;99027.00;;;20.29;47.82
48874;BME280;35220;46.204;5.220;2022-10-30T18:49:20;99029.19;;;20.27;47.61
48874;BME280;35220;46.204;5.220;2022-10-30T18:54:23;99036.00;;;20.28;47.24
48874;BME280;35220;46.204;5.220;2022-10-30T18:59:23;99037.72;;;20.24;47.41
48874;BME280;35220;46.204;5.220;2022-10-30T19:04:24;99037.34;;;20.17;47.72
48874;BME280;35220;46.204;5.220;2022-10-30T19:09:24;99029.06;;;20.10;47.64
48874;BME280;35220;46.204;5.220;2022-10-30T19:14:24;99047.97;;;20.03;47.92
48874;BME280;35220;46.204;5.220;2022-10-30T19:19:25;99036.56;;;19.94;47.91
48874;BME280;35220;46.204;5.220;2022-10-30T19:24:25;99038.25;;;19.90;48.06
48874;BME280;35220;46.204;5.220;2022-10-30T19:29:26;99044.91;;;19.87;48.37
48874;BME280;35220;46.204;5.220;2022-10-30T19:34:26;99041.91;;;19.80;48.35
48874;BME280;35220;46.204;5.220;2022-10-30T19:39:26;99052.94;;;19.82;47.91
48874;BME280;35220;46.204;5.220;2022-10-30T19:44:27;99054.16;;;19.76;47.95
48874;BME280;35220;46.204;5.220;2022-10-30T19:49:27;99056.97;;;19.66;48.63
48874;BME280;35220;46.204;5.220;2022-10-30T19:54:28;99056.50;;;19.64;48.87
48874;BME280;35220;46.204;5.220;2022-10-30T19:59:28;99060.03;;;19.59;49.32
48874;BME280;35220;46.204;5.220;2022-10-30T20:04:29;99064.81;;;19.57;49.26
48874;BME280;35220;46.204;5.220;2022-10-30T20:09:29;99055.66;;;19.54;49.40
48874;BME280;35220;46.204;5.220;2022-10-30T20:14:31;99060.63;;;19.56;49.18
48874;BME280;35220;46.204;5.220;2022-10-30T20:19:31;99069.06;;;19.58;48.99
48874;BME280;35220;46.204;5.220;2022-10-30T20:24:31;99068.84;;;19.54;49.32
48874;BME280;35220;46.204;5.220;2022-10-30T20:29:32;99073.16;;;19.50;49.51
48874;BME280;35220;46.204;5.220;2022-10-30T20:34:39;99073.97;;;19.51;49.37
48874;BME280;35220;46.204;5.220;2022-10-30T20:39:39;99086.06;;;19.52;49.46
48874;BME280;35220;46.204;5.220;2022-10-30T20:44:40;99091.66;;;19.50;49.64
48874;BME280;35220;46.204;5.220;2022-10-30T20:49:40;99099.56;;;19.50;49.71
48874;BME280;35220;46.204;5.220;2022-10-30T20:54:40;99102.94;;;19.42;50.20
48874;BME280;35220;46.204;5.220;2022-10-30T20:59:41;99106.63;;;19.41;50.36
48874;BME280;35220;46.204;5.220;2022-10-30T21:04:41;99101.34;;;19.41;50.73
48874;BME280;35220;46.204;5.220;2022-10-30T21:09:42;99091.28;;;19.43;50.96
48874;BME280;35220;46.204;5.220;2022-10-30T21:14:42;99095.47;;;19.44;51.20
48874;BME280;35220;46.204;5.220;2022-10-30T21:19:43;99098.13;;;19.44;51.09
48874;BME280;35220;46.204;5.220;2022-10-30T21:24:43;99100.78;;;19.44;51.35
48874;BME280;35220;46.204;5.220;2022-10-30T21:29:44;99091.88;;;19.40;51.95
48874;BME280;35220;46.204;5.220;2022-10-30T21:34:45;99097.84;;;19.46;51.53
48874;BME280;35220;46.204;5.220;2022-10-30T21:39:46;99096.34;;;19.40;51.89
48874;BME280;35220;46.204;5.220;2022-10-30T21:44:46;99096.97;;;19.36;52.19
48874;BME280;35220;46.204;5.220;2022-10-30T21:49:47;99095.78;;;19.29;52.74
48874;BME280;35220;46.204;5.220;2022-10-30T21:54:48;99091.06;;;19.26;52.95
48874;BME280;35220;46.204;5.220;2022-10-30T21:59:48;99097.06;;;19.17;53.57
48874;BME280;35220;46.204;5.220;2022-10-30T22:04:48;99093.44;;;19.13;53.52
48874;BME280;35220;46.204;5.220;2022-10-30T22:09:49;99091.66;;;19.09;54.88
48874;BME280;35220;46.204;5.220;2022-10-30T22:14:49;99100.06;;;19.11;54.71
48874;BME280;35220;46.204;5.220;2022-10-30T22:19:49;99090.81;;;19.13;54.52
48874;BME280;35220;46.204;5.220;2022-10-30T22:24:50;99089.72;;;19.14;55.01
48874;BME280;35220;46.204;5.220;2022-10-30T22:29:50;99097.34;;;19.16;54.70
48874;BME280;35220;46.204;5.220;2022-10-30T22:34:51;99091.28;;;19.15;54.95
48874;BME280;35220;46.204;5.220;2022-10-30T22:39:51;99093.25;;;19.10;55.54
48874;BME280;35220;46.204;5.220;2022-10-30T22:44:51;99094.09;;;19.05;56.38
48874;BME280;35220;46.204;5.220;2022-10-30T22:49:52;99094.59;;;19.07;55.56
48874;BME280;35220;46.204;5.220;2022-10-30T22:54:53;99078.94;;;18.97;56.15
48874;BME280;35220;46.204;5.220;2022-10-30T22:59:53;99075.13;;;18.89;57.05
48874;BME280;35220;46.204;5.220;2022-10-30T23:04:53;99072.56;;;18.84;58.72
48874;BME280;35220;46.204;5.220;2022-10-30T23:09:54;99067.56;;;18.83;58.40
48874;BME280;35220;46.204;5.220;2022-10-30T23:14:54;99077.63;;;18.80;59.56
48874;BME280;35220;46.204;5.220;2022-10-30T23:19:54;99079.47;;;18.80;60.27
48874;BME280;35220;46.204;5.220;2022-10-30T23:24:55;99081.88;;;18.82;58.98
48874;BME280;35220;46.204;5.220;2022-10-30T23:29:55;99074.28;;;18.75;59.94
48874;BME280;35220;46.204;5.220;2022-10-30T23:34:55;99075.16;;;18.70;60.52
48874;BME280;35220;46.204;5.220;2022-10-30T23:39:56;99073.31;;;18.71;60.48
48874;BME280;35220;46.204;5.220;2022-10-30T23:44:56;99069.38;;;18.68;59.55
48874;BME280;35220;46.204;5.220;2022-10-30T23:49:57;99068.13;;;18.66;60.61
48874;BME280;35220;46.204;5.220;2022-10-30T23:54:57;99064.38;;;18.67;60.65
48874;BME280;35220;46.204;5.220;2022-10-30T23:59:57;99062.91;;;18.60;61.84
